createdAt,value
2023-04-16T00:01:42.352Z,6.40
2023-04-16T00:04:09.713Z,6.40
2023-04-16T00:06:37.186Z,6.40
2023-04-16T00:09:04.739Z,6.40
2023-04-16T00:11:31.501Z,6.40
2023-04-16T00:13:58.287Z,6.40
2023-04-16T00:19:12.762Z,6.30
2023-04-16T00:21:39.824Z,6.30
2023-04-16T00:24:06.515Z,6.30
2023-04-16T00:26:33.247Z,6.30
2023-04-16T00:29:00.655Z,6.30
2023-04-16T00:31:31.960Z,6.20
2023-04-16T00:33:59.814Z,6.20
2023-04-16T00:36:27.955Z,6.20
2023-04-16T00:38:56.071Z,6.20
2023-04-16T00:41:23.506Z,6.20
2023-04-16T00:43:50.688Z,6.20
2023-04-16T00:46:19.307Z,6.20
2023-04-16T00:48:46.809Z,6.20
2023-04-16T00:51:13.583Z,6.20
2023-04-16T00:53:41.178Z,6.20
2023-04-16T00:56:08.060Z,6.10
2023-04-16T00:58:35.925Z,6.20
2023-04-16T01:01:02.833Z,6.20
2023-04-16T01:03:41.657Z,6.20
2023-04-16T01:06:09.247Z,6.20
2023-04-16T01:08:36.554Z,6.20
2023-04-16T01:11:03.796Z,6.20
2023-04-16T01:13:31.100Z,6.10
2023-04-16T01:15:58.147Z,6.20
2023-04-16T01:18:26.444Z,6.20
2023-04-16T01:20:53.211Z,6.20
2023-04-16T01:23:20.206Z,6.20
2023-04-16T01:25:47.737Z,6.20
2023-04-16T01:28:14.532Z,6.20
2023-04-16T01:30:41.617Z,6.20
2023-04-16T01:33:12.389Z,6.20
2023-04-16T01:35:41.064Z,6.20
2023-04-16T01:38:09.679Z,6.20
2023-04-16T01:40:37.400Z,6.20
2023-04-16T01:43:04.964Z,6.20
2023-04-16T01:45:32.339Z,6.20
2023-04-16T01:47:59.196Z,6.20
2023-04-16T01:50:26.318Z,6.20
2023-04-16T01:52:53.184Z,6.20
2023-04-16T01:55:20.219Z,6.20
2023-04-16T01:57:46.989Z,6.20
2023-04-16T02:00:14.076Z,6.20
2023-04-16T02:02:41.180Z,6.20
2023-04-16T02:05:08.421Z,6.20
2023-04-16T02:07:35.166Z,6.20
2023-04-16T02:10:02.234Z,6.10
2023-04-16T02:12:28.988Z,6.10
2023-04-16T02:14:56.066Z,6.20
2023-04-16T02:17:22.840Z,6.20
2023-04-16T02:19:49.917Z,6.20
2023-04-16T02:22:16.636Z,6.20
2023-04-16T02:24:43.652Z,6.20
2023-04-16T02:27:10.512Z,6.20
2023-04-16T02:29:37.408Z,6.20
2023-04-16T02:32:04.546Z,6.20
2023-04-16T02:34:31.326Z,6.20
2023-04-16T02:36:58.398Z,6.20
2023-04-16T02:39:27.434Z,6.20
2023-04-16T02:41:54.425Z,6.20
2023-04-16T02:44:22.059Z,6.20
2023-04-16T02:46:48.731Z,6.20
2023-04-16T02:49:15.408Z,6.20
2023-04-16T02:51:42.480Z,6.20
2023-04-16T02:54:09.483Z,6.20
2023-04-16T02:56:36.214Z,6.20
2023-04-16T02:59:02.935Z,6.20
2023-04-16T03:01:29.928Z,6.20
2023-04-16T03:03:57.091Z,6.10
2023-04-16T03:06:23.846Z,6.10
2023-04-16T03:08:50.930Z,6.20
2023-04-16T03:11:17.743Z,6.20
2023-04-16T03:13:44.479Z,6.20
2023-04-16T03:16:11.827Z,6.10
2023-04-16T03:18:38.526Z,6.10
2023-04-16T03:21:05.507Z,6.20
2023-04-16T03:23:32.386Z,6.20
2023-04-16T03:25:59.148Z,6.10
2023-04-16T03:32:12.813Z,6.10
2023-04-16T03:34:39.864Z,6.10
2023-04-16T03:37:06.903Z,6.10
2023-04-16T03:39:34.810Z,6.20
2023-04-16T03:42:02.278Z,6.10
2023-04-16T03:44:29.710Z,6.10
2023-04-16T03:46:56.479Z,6.10
2023-04-16T03:49:23.307Z,6.10
2023-04-16T03:51:50.488Z,6.10
2023-04-16T03:54:17.302Z,6.10
2023-04-16T03:56:44.094Z,6.10
2023-04-16T03:59:11.170Z,6.10
2023-04-16T04:01:38.245Z,6.10
2023-04-16T04:04:05.531Z,6.10
2023-04-16T04:06:32.647Z,6.10
2023-04-16T04:08:59.527Z,6.10
2023-04-16T04:11:26.538Z,6.10
2023-04-16T04:13:53.185Z,6.00
2023-04-16T04:16:20.220Z,6.10
2023-04-16T04:18:46.958Z,6.10
2023-04-16T04:21:13.711Z,6.10
2023-04-16T04:23:41.915Z,6.10
2023-04-16T04:26:08.906Z,6.10
2023-04-16T04:28:36.081Z,6.10
2023-04-16T04:31:03.172Z,6.10
2023-04-16T04:33:29.880Z,6.10
2023-04-16T04:35:56.578Z,6.10
2023-04-16T04:38:25.309Z,6.10
2023-04-16T04:40:53.094Z,6.10
2023-04-16T04:43:20.572Z,6.10
2023-04-16T04:45:49.509Z,6.20
2023-04-16T04:48:16.757Z,6.10
2023-04-16T04:50:45.703Z,6.20
2023-04-16T04:53:14.773Z,6.20
2023-04-16T04:55:41.875Z,6.20
2023-04-16T04:58:08.772Z,6.20
2023-04-16T05:00:37.191Z,6.20
2023-04-16T05:03:09.677Z,6.20
2023-04-16T05:05:36.520Z,6.20
2023-04-16T05:08:03.638Z,6.30
2023-04-16T05:10:30.392Z,6.30
2023-04-16T05:12:57.400Z,6.30
2023-04-16T05:15:24.174Z,6.40
2023-04-16T05:17:51.290Z,6.40
2023-04-16T05:20:18.396Z,6.40
2023-04-16T05:22:45.084Z,6.40
2023-04-16T05:25:12.055Z,6.50
2023-04-16T05:27:38.971Z,6.50
2023-04-16T05:30:06.310Z,6.50
2023-04-16T05:32:33.108Z,6.50
2023-04-16T05:35:00.066Z,6.50
2023-04-16T05:37:26.938Z,6.50
2023-04-16T05:39:53.994Z,6.50
2023-04-16T05:42:20.779Z,6.60
2023-04-16T05:44:47.743Z,6.70
2023-04-16T05:47:14.462Z,6.70
2023-04-16T05:49:41.312Z,6.80
2023-04-16T05:52:08.300Z,6.80
2023-04-16T05:54:35.226Z,6.90
2023-04-16T05:57:02.162Z,6.90
2023-04-16T05:59:29.775Z,6.90
2023-04-16T06:01:56.965Z,7.00
2023-04-16T06:04:23.718Z,7.00
2023-04-16T06:06:51.018Z,7.10
2023-04-16T06:09:18.422Z,7.00
2023-04-16T06:11:45.985Z,7.10
2023-04-16T06:14:12.953Z,7.20
2023-04-16T06:16:39.627Z,7.20
2023-04-16T06:19:06.712Z,7.30
2023-04-16T06:21:33.652Z,7.40
2023-04-16T06:24:01.027Z,7.50
2023-04-16T06:26:27.797Z,7.60
2023-04-16T06:28:54.519Z,7.60
2023-04-16T06:31:21.749Z,7.70
2023-04-16T06:33:48.777Z,7.80
2023-04-16T06:36:16.756Z,7.90
2023-04-16T06:38:44.025Z,8.00
2023-04-16T06:41:10.941Z,8.10
2023-04-16T06:43:37.690Z,8.20
2023-04-16T06:46:04.467Z,8.30
2023-04-16T06:48:35.416Z,8.40
2023-04-16T06:51:02.243Z,8.50
2023-04-16T06:53:28.970Z,8.60
2023-04-16T06:55:55.664Z,8.70
2023-04-16T06:58:22.768Z,8.70
2023-04-16T07:00:49.520Z,8.80
2023-04-16T07:03:41.502Z,8.90
2023-04-16T07:06:08.357Z,9.00
2023-04-16T07:08:35.072Z,9.10
2023-04-16T07:11:02.166Z,9.10
2023-04-16T07:13:28.932Z,9.10
2023-04-16T07:15:55.712Z,9.20
2023-04-16T07:18:22.653Z,9.20
2023-04-16T07:20:49.616Z,9.30
2023-04-16T07:23:16.356Z,9.30
2023-04-16T07:25:44.502Z,9.30
2023-04-16T07:28:11.372Z,9.40
2023-04-16T07:30:38.110Z,9.40
2023-04-16T07:33:05.262Z,9.60
2023-04-16T07:35:32.782Z,9.60
2023-04-16T07:37:59.522Z,9.70
2023-04-16T07:40:26.775Z,9.70
2023-04-16T07:42:53.813Z,9.80
2023-04-16T07:45:20.559Z,9.90
2023-04-16T07:47:47.766Z,10.00
2023-04-16T07:50:14.597Z,10.00
2023-04-16T07:52:42.686Z,10.00
2023-04-16T07:55:09.557Z,10.10
2023-04-16T07:57:36.370Z,10.10
2023-04-16T08:00:05.059Z,10.10
2023-04-16T08:02:32.498Z,10.20
2023-04-16T08:04:59.680Z,10.30
2023-04-16T08:07:26.760Z,10.50
2023-04-16T08:09:54.369Z,10.50
2023-04-16T08:12:22.137Z,10.80
2023-04-16T08:14:49.051Z,10.90
2023-04-16T08:17:16.590Z,11.10
2023-04-16T08:19:45.139Z,11.20
2023-04-16T08:22:13.183Z,11.20
2023-04-16T08:24:40.189Z,11.30
2023-04-16T08:27:17.911Z,11.30
2023-04-16T08:29:45.605Z,11.30
2023-04-16T08:32:12.724Z,11.30
2023-04-16T08:34:39.472Z,11.10
2023-04-16T08:37:06.381Z,11.00
2023-04-16T08:39:33.217Z,10.80
2023-04-16T08:42:04.994Z,10.70
2023-04-16T08:44:37.464Z,10.60
2023-04-16T08:47:09.512Z,10.70
2023-04-16T08:49:43.156Z,10.50
2023-04-16T08:52:18.611Z,10.60
2023-04-16T08:55:04.900Z,10.70
2023-04-16T08:57:39.674Z,10.80
2023-04-16T09:00:08.427Z,10.90
2023-04-16T09:02:35.893Z,11.00
2023-04-16T09:05:05.286Z,10.90
2023-04-16T09:07:33.732Z,11.00
2023-04-16T09:10:01.449Z,11.10
2023-04-16T09:12:28.223Z,11.30
2023-04-16T09:14:57.276Z,11.60
2023-04-16T09:17:24.009Z,11.80
2023-04-16T09:19:50.909Z,12.10
2023-04-16T09:22:17.877Z,12.20
2023-04-16T09:24:44.592Z,12.30
2023-04-16T09:27:12.873Z,12.20
2023-04-16T09:29:41.561Z,12.10
2023-04-16T09:32:10.405Z,12.10
2023-04-16T09:35:01.469Z,12.20
2023-04-16T09:37:31.804Z,12.40
2023-04-16T09:40:06.882Z,12.70
2023-04-16T09:46:14.897Z,12.90
2023-04-16T09:48:41.868Z,12.80
2023-04-16T09:51:08.592Z,12.80
2023-04-16T09:53:35.875Z,12.70
2023-04-16T09:56:05.448Z,12.60
2023-04-16T09:58:33.014Z,12.50
2023-04-16T10:01:06.124Z,12.60
2023-04-16T10:03:34.402Z,12.70
2023-04-16T10:06:09.558Z,12.80
2023-04-16T10:08:36.385Z,12.90
2023-04-16T10:11:03.118Z,13.10
2023-04-16T10:13:31.436Z,13.30
2023-04-16T10:15:59.072Z,13.50
2023-04-16T10:18:26.547Z,13.40
2023-04-16T10:20:53.396Z,13.10
2023-04-16T10:23:22.153Z,13.00
2023-04-16T10:25:50.361Z,13.30
2023-04-16T10:28:17.221Z,13.60
2023-04-16T10:30:52.900Z,13.50
2023-04-16T10:33:25.673Z,13.40
2023-04-16T10:36:08.151Z,13.90
2023-04-16T10:38:35.446Z,14.00
2023-04-16T10:41:04.253Z,14.40
2023-04-16T10:43:32.987Z,14.90
2023-04-16T10:46:17.789Z,14.90
2023-04-16T10:51:52.526Z,13.70
2023-04-16T10:54:21.837Z,13.70
2023-04-16T10:56:50.656Z,13.90
2023-04-16T10:59:22.135Z,14.80
2023-04-16T11:01:52.463Z,15.40
2023-04-16T11:04:25.295Z,16.20
2023-04-16T11:07:05.822Z,16.60
2023-04-16T11:10:02.417Z,17.40
2023-04-16T11:12:42.637Z,17.80
2023-04-16T11:15:11.476Z,17.80
2023-04-16T11:17:46.930Z,18.00
2023-04-16T11:20:21.293Z,17.90
2023-04-16T11:22:52.341Z,17.70
2023-04-16T11:25:31.729Z,17.70
2023-04-16T11:27:59.451Z,17.50
2023-04-16T11:30:34.273Z,16.70
2023-04-16T11:33:11.707Z,16.50
2023-04-16T11:35:39.664Z,16.50
2023-04-16T11:38:07.750Z,16.70
2023-04-16T11:40:34.975Z,16.70
2023-04-16T11:43:16.694Z,16.90
2023-04-16T11:46:02.685Z,16.80
2023-04-16T11:48:55.434Z,16.40
2023-04-16T11:51:23.538Z,15.70
2023-04-16T11:53:53.413Z,15.30
2023-04-16T11:56:26.666Z,14.90
2023-04-16T11:59:14.424Z,14.40
2023-04-16T12:01:45.695Z,13.90
2023-04-16T12:04:16.108Z,13.70
2023-04-16T12:07:04.976Z,13.50
2023-04-16T12:09:31.936Z,13.30
2023-04-16T12:11:58.951Z,13.10
2023-04-16T12:14:25.660Z,13.00
2023-04-16T12:16:52.836Z,12.80
2023-04-16T12:19:19.697Z,12.60
2023-04-16T12:21:48.297Z,12.50
2023-04-16T12:24:20.646Z,12.40
2023-04-16T12:26:52.183Z,12.40
2023-04-16T12:29:22.836Z,12.50
2023-04-16T12:31:50.706Z,12.60
2023-04-16T12:34:18.228Z,12.60
2023-04-16T12:36:46.420Z,12.60
2023-04-16T12:39:14.799Z,12.80
2023-04-16T12:41:43.327Z,13.00
2023-04-16T12:44:12.457Z,13.30
2023-04-16T12:46:40.570Z,13.40
2023-04-16T12:49:08.297Z,13.80
2023-04-16T12:51:36.462Z,14.30
2023-04-16T12:54:05.577Z,14.80
2023-04-16T12:56:32.430Z,15.40
2023-04-16T12:58:59.219Z,16.80
2023-04-16T13:01:25.955Z,18.30
2023-04-16T13:03:53.139Z,19.40
2023-04-16T13:06:20.854Z,19.40
2023-04-16T13:08:47.558Z,19.50
2023-04-16T13:11:14.636Z,18.90
2023-04-16T13:13:41.394Z,18.30
2023-04-16T13:16:08.936Z,17.70
2023-04-16T13:18:36.994Z,17.00
2023-04-16T13:21:04.641Z,16.40
2023-04-16T13:23:31.617Z,16.20
2023-04-16T13:25:58.771Z,16.00
2023-04-16T13:28:25.627Z,15.70
2023-04-16T13:30:53.409Z,15.30
2023-04-16T13:33:21.391Z,15.40
2023-04-16T13:35:49.927Z,15.20
2023-04-16T13:38:17.031Z,15.20
2023-04-16T13:40:43.787Z,15.30
2023-04-16T13:43:10.639Z,15.30
2023-04-16T13:45:37.999Z,15.50
2023-04-16T13:48:05.487Z,15.90
2023-04-16T13:50:32.591Z,16.20
2023-04-16T13:52:59.330Z,16.70
2023-04-16T13:55:26.203Z,16.90
2023-04-16T13:57:53.393Z,16.80
2023-04-16T14:00:20.451Z,16.80
2023-04-16T14:02:48.806Z,16.40
2023-04-16T14:05:16.062Z,15.80
2023-04-16T14:07:42.808Z,15.20
2023-04-16T14:10:10.204Z,14.60
2023-04-16T14:12:38.176Z,14.20
2023-04-16T14:15:09.707Z,13.80
2023-04-16T14:17:39.304Z,13.40
2023-04-16T14:20:06.949Z,13.30
2023-04-16T14:22:33.750Z,13.30
2023-04-16T14:25:01.438Z,13.30
2023-04-16T14:27:28.858Z,13.40
2023-04-16T14:29:55.620Z,13.30
2023-04-16T14:32:22.314Z,13.20
2023-04-16T14:34:49.455Z,13.00
2023-04-16T14:37:17.831Z,13.00
2023-04-16T14:39:45.052Z,13.00
2023-04-16T14:42:11.999Z,13.10
2023-04-16T14:44:38.840Z,13.10
2023-04-16T14:47:06.018Z,13.10
2023-04-16T14:49:34.330Z,13.00
2023-04-16T14:52:02.717Z,13.00
2023-04-16T14:54:29.507Z,12.80
2023-04-16T14:56:56.853Z,12.70
2023-04-16T14:59:23.526Z,12.70
2023-04-16T15:01:51.011Z,12.90
2023-04-16T15:04:18.032Z,12.90
2023-04-16T15:06:46.501Z,12.90
2023-04-16T15:09:13.486Z,12.90
2023-04-16T15:11:40.504Z,12.70
2023-04-16T15:14:07.216Z,12.80
2023-04-16T15:16:34.068Z,12.80
2023-04-16T15:19:01.972Z,13.00
2023-04-16T15:21:29.864Z,13.00
2023-04-16T15:23:56.642Z,13.00
2023-04-16T15:26:23.323Z,12.90
2023-04-16T15:28:50.256Z,13.10
2023-04-16T15:31:17.282Z,13.00
2023-04-16T15:33:44.322Z,12.90
2023-04-16T15:36:11.458Z,12.90
2023-04-16T15:38:38.201Z,12.90
2023-04-16T15:41:05.483Z,12.70
2023-04-16T15:43:32.246Z,12.60
2023-04-16T15:45:59.072Z,12.60
2023-04-16T15:48:26.192Z,12.30
2023-04-16T15:50:54.227Z,12.30
2023-04-16T15:53:21.296Z,12.10
2023-04-16T15:55:50.623Z,12.00
2023-04-16T15:58:17.626Z,11.90
2023-04-16T16:00:47.508Z,11.70
2023-04-16T16:03:14.717Z,11.80
2023-04-16T16:05:41.710Z,11.60
2023-04-16T16:08:08.729Z,11.60
2023-04-16T16:10:35.739Z,11.60
2023-04-16T16:13:05.446Z,11.50
2023-04-16T16:15:32.512Z,11.40
2023-04-16T16:17:59.641Z,11.40
2023-04-16T16:20:26.569Z,11.40
2023-04-16T16:22:53.659Z,11.30
2023-04-16T16:25:21.269Z,11.20
2023-04-16T16:27:47.998Z,11.10
2023-04-16T16:30:14.795Z,11.00
2023-04-16T16:32:43.748Z,10.80
2023-04-16T16:35:11.693Z,10.70
2023-04-16T16:37:38.455Z,10.60
2023-04-16T16:40:05.818Z,10.50
2023-04-16T16:42:32.584Z,10.50
2023-04-16T16:44:59.599Z,10.40
2023-04-16T16:47:27.368Z,10.40
2023-04-16T16:49:54.759Z,10.40
2023-04-16T16:52:26.099Z,10.40
2023-04-16T16:54:57.059Z,10.30
2023-04-16T16:57:24.061Z,10.20
2023-04-16T16:59:51.343Z,10.10
2023-04-16T17:02:18.759Z,10.10
2023-04-16T17:04:45.582Z,10.10
2023-04-16T17:07:12.381Z,10.00
2023-04-16T17:09:39.337Z,10.00
2023-04-16T17:12:06.554Z,10.10
2023-04-16T17:14:33.952Z,10.00
2023-04-16T17:17:00.695Z,9.90
2023-04-16T17:19:27.572Z,9.80
2023-04-16T17:21:54.431Z,9.70
2023-04-16T17:24:21.516Z,9.70
2023-04-16T17:26:48.282Z,9.60
2023-04-16T17:29:15.045Z,9.60
2023-04-16T17:31:41.817Z,9.50
2023-04-16T17:34:08.734Z,9.40
2023-04-16T17:36:35.656Z,9.40
2023-04-16T17:39:02.633Z,9.30
2023-04-16T17:41:29.668Z,9.30
2023-04-16T17:43:56.353Z,9.20
2023-04-16T17:46:23.232Z,9.10
2023-04-16T17:48:50.287Z,9.10
2023-04-16T17:51:17.030Z,9.00
2023-04-16T17:53:44.655Z,8.90
2023-04-16T17:56:12.535Z,8.90
2023-04-16T17:58:39.305Z,8.80
2023-04-16T18:01:06.208Z,8.80
2023-04-16T18:03:33.619Z,8.80
2023-04-16T18:06:00.697Z,8.70
2023-04-16T18:08:27.783Z,8.70
2023-04-16T18:10:55.781Z,8.70
2023-04-16T18:13:24.134Z,8.70
2023-04-16T18:15:51.840Z,8.70
2023-04-16T18:18:20.539Z,8.70
2023-04-16T18:20:47.253Z,8.60
2023-04-16T18:23:14.258Z,8.60
2023-04-16T18:25:41.035Z,8.60
2023-04-16T18:28:07.720Z,8.60
2023-04-16T18:30:35.482Z,8.60
2023-04-16T18:35:31.852Z,8.50
2023-04-16T18:37:58.750Z,8.50
2023-04-16T18:40:26.294Z,8.50
2023-04-16T18:42:53.076Z,8.50
2023-04-16T18:45:21.963Z,8.40
2023-04-16T18:47:50.540Z,8.40
2023-04-16T18:50:17.345Z,8.40
2023-04-16T18:52:44.454Z,8.40
2023-04-16T18:55:11.177Z,8.40
2023-04-16T18:57:37.887Z,8.40
2023-04-16T19:00:11.035Z,8.40
2023-04-16T19:02:38.300Z,8.40
2023-04-16T19:05:05.885Z,8.40
2023-04-16T19:07:32.550Z,8.30
2023-04-16T19:10:00.097Z,8.30
2023-04-16T19:12:26.845Z,8.30
2023-04-16T19:14:53.512Z,8.30
2023-04-16T19:17:20.807Z,8.30
2023-04-16T19:19:47.725Z,8.30
2023-04-16T19:22:14.440Z,8.30
2023-04-16T19:24:41.365Z,8.30
2023-04-16T19:27:08.354Z,8.20
2023-04-16T19:29:35.381Z,8.20
2023-04-16T19:32:02.869Z,8.20
2023-04-16T19:34:29.641Z,8.20
2023-04-16T19:36:56.541Z,8.20
2023-04-16T19:39:27.415Z,8.20
2023-04-16T19:41:54.108Z,8.20
2023-04-16T19:44:23.358Z,8.10
2023-04-16T19:46:50.058Z,8.20
2023-04-16T19:49:16.774Z,8.10
2023-04-16T19:51:43.437Z,8.10
2023-04-16T19:54:10.522Z,8.20
2023-04-16T19:56:37.235Z,8.20
2023-04-16T19:59:04.013Z,8.20
2023-04-16T20:01:33.826Z,8.10
2023-04-16T20:04:01.138Z,8.20
2023-04-16T20:06:27.921Z,8.20
2023-04-16T20:08:55.049Z,8.20
2023-04-16T20:11:21.739Z,8.10
2023-04-16T20:13:49.108Z,8.10
2023-04-16T20:16:15.932Z,8.10
2023-04-16T20:18:42.779Z,8.10
2023-04-16T20:21:10.398Z,8.10
2023-04-16T20:23:37.217Z,8.00
2023-04-16T20:26:04.505Z,8.00
2023-04-16T20:28:31.512Z,8.10
2023-04-16T20:30:58.874Z,8.00
2023-04-16T20:33:25.651Z,8.00
2023-04-16T20:35:52.607Z,8.00
2023-04-16T20:38:23.932Z,8.00
2023-04-16T20:41:06.318Z,8.00
2023-04-16T20:43:38.690Z,8.00
2023-04-16T20:46:06.409Z,8.00
2023-04-16T20:48:33.426Z,7.90
2023-04-16T20:51:01.720Z,7.90
2023-04-16T20:53:28.488Z,7.90
2023-04-16T20:55:55.456Z,8.00
2023-04-16T20:58:22.594Z,8.00
2023-04-16T21:00:53.619Z,8.00
2023-04-16T21:03:20.879Z,8.00
2023-04-16T21:05:52.010Z,8.00
2023-04-16T21:08:19.898Z,8.00
2023-04-16T21:10:46.757Z,8.00
2023-04-16T21:13:13.531Z,8.00
2023-04-16T21:15:45.360Z,7.90
2023-04-16T21:18:12.211Z,7.90
2023-04-16T21:20:39.841Z,7.90
2023-04-16T21:23:07.115Z,8.00
2023-04-16T21:25:33.857Z,8.00
2023-04-16T21:28:00.773Z,7.90
2023-04-16T21:30:27.549Z,8.00
2023-04-16T21:32:54.875Z,7.90
2023-04-16T21:35:21.609Z,7.90
2023-04-16T21:37:48.519Z,7.90
2023-04-16T21:40:15.291Z,7.90
2023-04-16T21:42:42.567Z,7.90
2023-04-16T21:45:10.452Z,7.80
2023-04-16T21:47:38.301Z,7.80
2023-04-16T21:50:05.869Z,7.80
2023-04-16T21:52:33.165Z,7.80
2023-04-16T21:55:01.111Z,7.70
2023-04-16T21:57:27.847Z,7.70
2023-04-16T21:59:54.827Z,7.70
2023-04-16T22:02:21.705Z,7.80
2023-04-16T22:04:48.978Z,7.80
2023-04-16T22:07:16.965Z,7.80
2023-04-16T22:09:44.124Z,7.80
2023-04-16T22:12:11.071Z,7.80
2023-04-16T22:14:44.062Z,7.80
2023-04-16T22:17:13.312Z,7.80
2023-04-16T22:19:40.255Z,7.80
2023-04-16T22:22:06.935Z,7.80
2023-04-16T22:24:33.852Z,7.70
2023-04-16T22:27:01.284Z,7.70
2023-04-16T22:29:28.018Z,7.70
2023-04-16T22:31:55.418Z,7.60
2023-04-16T22:34:22.215Z,7.50
2023-04-16T22:36:48.963Z,7.50
2023-04-16T22:39:15.905Z,7.40
2023-04-16T22:41:42.639Z,7.50
2023-04-16T22:44:09.585Z,7.50
2023-04-16T22:46:36.450Z,7.40
2023-04-16T22:49:03.287Z,7.50
2023-04-16T22:51:30.872Z,7.40
2023-04-16T22:53:57.826Z,7.40
2023-04-16T22:56:29.056Z,7.50
2023-04-16T22:58:55.873Z,7.50
2023-04-16T23:01:23.714Z,7.50
2023-04-16T23:03:50.707Z,7.60
2023-04-16T23:06:17.737Z,7.60
2023-04-16T23:08:44.759Z,7.50
2023-04-16T23:11:12.007Z,7.50
2023-04-16T23:13:39.002Z,7.60
2023-04-16T23:16:06.247Z,7.50
2023-04-16T23:18:33.231Z,7.60
2023-04-16T23:21:00.022Z,7.60
2023-04-16T23:23:26.680Z,7.60
2023-04-16T23:25:54.087Z,7.60
2023-04-16T23:28:21.561Z,7.60
2023-04-16T23:30:53.149Z,7.50
2023-04-16T23:33:19.992Z,7.50
2023-04-16T23:35:47.660Z,7.50
2023-04-16T23:38:14.620Z,7.40
2023-04-16T23:40:41.409Z,7.40
2023-04-16T23:43:08.201Z,7.40
2023-04-16T23:45:35.285Z,7.30
2023-04-16T23:48:02.123Z,7.30
2023-04-16T23:50:29.118Z,7.40
2023-04-16T23:52:57.084Z,7.30
2023-04-16T23:55:24.160Z,7.30
2023-04-16T23:57:50.931Z,7.30
